Time;durP1;ratioP1;P1;durP2;ratioP2;P2;SDS_P1;SDS_P2;PMS_P1;PMS_P2;Temp;Humidity;BMP_temperature;BMP_pressure;BME280_temperature;BME280_humidity;BME280_pressure;Samples;Min_cycle;Max_cycle;Signal;HPM_P1;HPM_P2
2022/10/02 00:01:56;;;;;;;;;;;20.50;71.40;;;;;;5015106;28;871;-68
2022/10/02 00:04:27;;;;;;;;;;;20.50;71.40;;;;;;5021447;28;899;-68
2022/10/02 00:06:53;;;;;;;;;;;20.50;71.40;;;;;;5022589;28;1300;-67
2022/10/02 00:09:28;;;;;;;;;;;20.50;71.40;;;;;;5022567;28;975;-68
2022/10/02 00:11:54;;;;;;;;;;;20.40;71.50;;;;;;5021559;28;2771;-67
2022/10/02 00:14:20;;;;;;;;;;;20.50;71.50;;;;;;5020440;28;1477;-67
2022/10/02 00:16:46;;;;;;;;;;;20.50;71.50;;;;;;5020652;28;1297;-69
2022/10/02 00:19:14;;;;;;;;;;;20.50;71.40;;;;;;5021148;28;1415;-67
2022/10/02 00:21:44;;;;;;;;;;;20.40;71.40;;;;;;5020045;28;1187;-67
2022/10/02 00:24:21;;;;;;;;;;;20.40;71.40;;;;;;5017123;28;904;-68
2022/10/02 00:27:00;;;;;;;;;;;20.40;71.40;;;;;;5017443;28;1157;-67
2022/10/02 00:29:45;;;;;;;;;;;20.40;71.50;;;;;;5020928;28;1261;-68
2022/10/02 00:32:23;;;;;;;;;;;20.50;71.50;;;;;;5019447;28;1323;-67
2022/10/02 00:34:55;;;;;;;;;;;20.50;71.50;;;;;;5016667;28;1477;-67
2022/10/02 00:37:29;;;;;;;;;;;20.40;71.50;;;;;;5024610;28;1332;-67
2022/10/02 00:40:00;;;;;;;;;;;20.40;71.50;;;;;;5022162;28;1053;-67
2022/10/02 00:42:46;;;;;;;;;;;20.40;72.20;;;;;;5025252;28;840;-67
2022/10/02 00:45:25;;;;;;;;;;;20.40;71.50;;;;;;5002626;28;1319;-67
2022/10/02 00:47:53;;;;;;;;;;;20.40;71.50;;;;;;5023918;28;1955;-67
2022/10/02 00:50:25;;;;;;;;;;;20.40;71.50;;;;;;5018767;28;991;-67
2022/10/02 00:52:53;;;;;;;;;;;20.40;71.50;;;;;;5021898;28;912;-67
2022/10/02 00:55:19;;;;;;;;;;;20.40;71.60;;;;;;5021351;28;2108;-69
2022/10/02 00:57:47;;;;;;;;;;;20.40;71.50;;;;;;5026537;28;1319;-69
2022/10/02 01:00:13;;;;;;;;;;;20.40;71.50;;;;;;5027807;28;1377;-69
2022/10/02 01:02:43;;;;;;;;;;;20.40;71.50;;;;;;5025235;28;1499;-68
2022/10/02 01:05:09;;;;;;;;;;;20.40;71.50;;;;;;5022861;28;1414;-68
2022/10/02 01:07:35;;;;;;;;;;;20.40;71.50;;;;;;5027102;28;1906;-68
2022/10/02 01:10:00;;;;;;;;;;;20.40;71.50;;;;;;5023118;28;1186;-69
2022/10/02 01:12:26;;;;;;;;;;;20.40;71.50;;;;;;5025100;28;1339;-68
2022/10/02 01:14:51;;;;;;;;;;;20.40;71.50;;;;;;5029971;28;1185;-70
2022/10/02 01:17:24;;;;;;;;;;;20.40;71.60;;;;;;5025326;28;1240;-68
2022/10/02 01:19:50;;;;;;;;;;;20.40;71.60;;;;;;5022244;28;1346;-71
2022/10/02 01:22:18;;;;;;;;;;;20.40;71.50;;;;;;5024766;28;1345;-70
2022/10/02 01:24:50;;;;;;;;;;;20.40;71.60;;;;;;5024103;28;1325;-69
2022/10/02 01:27:16;;;;;;;;;;;20.40;71.60;;;;;;5021547;28;1964;-71
2022/10/02 01:29:45;;;;;;;;;;;20.40;71.60;;;;;;5027506;28;1554;-68
2022/10/02 01:32:10;;;;;;;;;;;20.40;71.60;;;;;;5023872;28;1288;-68
2022/10/02 01:34:36;;;;;;;;;;;20.40;71.50;;;;;;5021132;28;988;-68
2022/10/02 01:37:02;;;;;;;;;;;20.40;71.60;;;;;;5020909;28;1276;-68
2022/10/02 01:39:27;;;;;;;;;;;20.40;71.60;;;;;;5021389;28;861;-68
2022/10/02 01:41:54;;;;;;;;;;;20.40;71.60;;;;;;5020179;28;864;-68
2022/10/02 01:44:19;;;;;;;;;;;20.40;71.60;;;;;;5019479;28;884;-68
2022/10/02 01:46:51;;;;;;;;;;;20.40;71.60;;;;;;5022333;28;1374;-68
2022/10/02 01:49:23;;;;;;;;;;;20.40;71.60;;;;;;5019290;28;1906;-68
2022/10/02 01:51:58;;;;;;;;;;;20.40;71.60;;;;;;5023022;28;932;-68
2022/10/02 01:54:26;;;;;;;;;;;20.40;71.60;;;;;;5024717;28;856;-68
2022/10/02 01:56:54;;;;;;;;;;;20.40;71.60;;;;;;5019848;28;1522;-68
2022/10/02 01:59:26;;;;;;;;;;;20.40;71.70;;;;;;5022484;28;1273;-68
2022/10/02 02:01:51;;;;;;;;;;;20.40;71.70;;;;;;5018102;28;891;-69
2022/10/02 02:04:24;;;;;;;;;;;20.40;71.60;;;;;;5019236;28;895;-68
2022/10/02 02:07:09;;;;;;;;;;;20.40;71.60;;;;;;5023141;28;1300;-68
2022/10/02 02:09:42;;;;;;;;;;;20.40;71.70;;;;;;5021325;28;824;-68
2022/10/02 02:12:10;;;;;;;;;;;20.40;71.60;;;;;;5022119;28;841;-69
2022/10/02 02:14:36;;;;;;;;;;;20.40;71.60;;;;;;5018602;28;880;-71
2022/10/02 02:17:05;;;;;;;;;;;20.40;71.70;;;;;;5022930;28;1236;-71
2022/10/02 02:19:32;;;;;;;;;;;20.40;72.40;;;;;;5021289;28;1090;-70
2022/10/02 02:21:59;;;;;;;;;;;20.40;71.70;;;;;;5021685;28;903;-71
2022/10/02 02:24:26;;;;;;;;;;;20.40;71.70;;;;;;5024129;28;1065;-71
2022/10/02 02:26:52;;;;;;;;;;;20.40;71.70;;;;;;5019311;28;1216;-71
2022/10/02 02:29:18;;;;;;;;;;;20.40;71.70;;;;;;5023294;28;1981;-71
2022/10/02 02:31:46;;;;;;;;;;;20.40;71.70;;;;;;5023164;28;1545;-71
2022/10/02 02:34:13;;;;;;;;;;;20.40;71.70;;;;;;5015286;28;856;-71
2022/10/02 02:36:40;;;;;;;;;;;20.40;71.70;;;;;;5021079;28;1272;-70
2022/10/02 02:39:06;;;;;;;;;;;20.40;71.80;;;;;;5017234;28;1077;-69
2022/10/02 02:41:34;;;;;;;;;;;20.40;71.70;;;;;;5021983;28;811;-71
2022/10/02 02:44:05;;;;;;;;;;;20.40;71.70;;;;;;5022875;28;860;-70
2022/10/02 02:46:32;;;;;;;;;;;20.40;71.70;;;;;;5018775;28;1212;-70
2022/10/02 02:49:08;;;;;;;;;;;20.40;71.80;;;;;;5021170;28;2015;-69
2022/10/02 02:51:35;;;;;;;;;;;20.40;71.80;;;;;;5015958;28;1020;-69
2022/10/02 02:54:02;;;;;;;;;;;20.40;71.70;;;;;;5019924;28;888;-69
2022/10/02 02:56:27;;;;;;;;;;;20.40;71.70;;;;;;5022196;28;1213;-70
2022/10/02 02:58:55;;;;;;;;;;;20.40;71.70;;;;;;5021915;28;1294;-70
2022/10/02 03:01:21;;;;;;;;;;;20.40;71.70;;;;;;5023122;28;884;-70
2022/10/02 03:03:47;;;;;;;;;;;20.40;71.70;;;;;;5017222;28;916;-69
2022/10/02 03:06:16;;;;;;;;;;;20.40;71.70;;;;;;5019822;28;1385;-69
2022/10/02 03:08:41;;;;;;;;;;;20.40;71.80;;;;;;5018450;28;1918;-69
2022/10/02 03:11:10;;;;;;;;;;;20.40;71.80;;;;;;5017133;28;904;-69
2022/10/02 03:13:48;;;;;;;;;;;20.40;71.70;;;;;;5016231;28;840;-69
2022/10/02 03:16:16;;;;;;;;;;;20.40;71.70;;;;;;5018813;28;1287;-70
2022/10/02 03:18:55;;;;;;;;;;;20.40;71.80;;;;;;5020078;28;818;-69
2022/10/02 03:21:41;;;;;;;;;;;20.40;71.80;;;;;;5019371;28;918;-68
2022/10/02 03:24:17;;;;;;;;;;;20.40;71.80;;;;;;5013544;28;1449;-68
2022/10/02 03:26:49;;;;;;;;;;;20.40;71.70;;;;;;5020115;28;1376;-67
2022/10/02 03:29:16;;;;;;;;;;;20.40;71.80;;;;;;5023589;28;1918;-68
2022/10/02 03:31:42;;;;;;;;;;;20.40;71.80;;;;;;5019797;28;1403;-68
2022/10/02 03:34:07;;;;;;;;;;;20.40;71.90;;;;;;5019332;28;899;-68
2022/10/02 03:36:33;;;;;;;;;;;20.40;71.80;;;;;;5020966;28;1272;-68
2022/10/02 03:38:59;;;;;;;;;;;20.40;71.90;;;;;;5021320;28;895;-68
2022/10/02 03:41:25;;;;;;;;;;;20.40;71.80;;;;;;5021687;28;1010;-67
2022/10/02 03:43:50;;;;;;;;;;;20.40;71.90;;;;;;5014171;28;884;-67
2022/10/02 03:46:15;;;;;;;;;;;20.40;71.80;;;;;;5016138;28;1351;-68
2022/10/02 03:48:41;;;;;;;;;;;20.40;71.80;;;;;;5017535;28;1914;-68
2022/10/02 03:51:06;;;;;;;;;;;20.40;71.90;;;;;;5015434;28;892;-69
2022/10/02 03:53:35;;;;;;;;;;;20.40;71.80;;;;;;5020571;28;820;-69
2022/10/02 03:56:00;;;;;;;;;;;20.40;71.90;;;;;;5021286;28;1338;-69
2022/10/02 03:58:26;;;;;;;;;;;20.40;71.80;;;;;;5020579;28;1284;-70
2022/10/02 04:00:54;;;;;;;;;;;20.30;71.80;;;;;;5019629;28;883;-70
2022/10/02 04:03:24;;;;;;;;;;;20.40;71.90;;;;;;5021132;28;904;-71
2022/10/02 04:05:51;;;;;;;;;;;20.40;71.80;;;;;;5015151;28;1421;-70
2022/10/02 04:08:21;;;;;;;;;;;20.40;72.60;;;;;;5021604;28;1985;-71
2022/10/02 04:10:56;;;;;;;;;;;20.40;71.90;;;;;;5023151;28;862;-69
2022/10/02 04:13:30;;;;;;;;;;;20.40;71.80;;;;;;5016703;28;1049;-68
2022/10/02 04:16:12;;;;;;;;;;;20.40;71.90;;;;;;5018365;28;1336;-68
2022/10/02 04:18:46;;;;;;;;;;;20.40;71.90;;;;;;5018773;28;879;-70
2022/10/02 04:21:14;;;;;;;;;;;20.40;71.90;;;;;;5019826;28;950;-70
2022/10/02 04:23:42;;;;;;;;;;;20.40;71.80;;;;;;5022489;28;892;-69
2022/10/02 04:26:16;;;;;;;;;;;20.40;71.90;;;;;;5015492;28;1252;-71
2022/10/02 04:28:43;;;;;;;;;;;20.40;71.90;;;;;;5019945;28;1906;-70
2022/10/02 04:31:11;;;;;;;;;;;20.40;71.90;;;;;;5002573;28;1188;-69
2022/10/02 04:33:37;;;;;;;;;;;20.30;71.90;;;;;;5015939;28;898;-70
2022/10/02 04:36:03;;;;;;;;;;;20.40;71.90;;;;;;5017629;28;1273;-72
2022/10/02 04:38:38;;;;;;;;;;;20.30;71.80;;;;;;5013079;28;1849;-70
2022/10/02 04:41:15;;;;;;;;;;;20.40;71.90;;;;;;5016268;28;1318;-70
2022/10/02 04:43:51;;;;;;;;;;;20.40;71.90;;;;;;5018142;28;1274;-67
2022/10/02 04:46:35;;;;;;;;;;;20.40;71.90;;;;;;5020355;28;1486;-69
2022/10/02 04:49:00;;;;;;;;;;;20.40;71.70;;;;;;5020337;28;1907;-69
2022/10/02 04:51:32;;;;;;;;;;;20.40;71.70;;;;;;5016616;28;2126;-69
2022/10/02 04:54:02;;;;;;;;;;;20.50;71.60;;;;;;5015691;28;1143;-68
2022/10/02 04:56:33;;;;;;;;;;;20.50;71.50;;;;;;5017171;28;1320;-66
2022/10/02 04:59:05;;;;;;;;;;;20.50;71.50;;;;;;5019186;28;1294;-68
2022/10/02 05:01:39;;;;;;;;;;;20.50;71.30;;;;;;5017634;28;904;-68
2022/10/02 05:04:19;;;;;;;;;;;20.50;71.20;;;;;;5016191;28;859;-68
2022/10/02 05:06:50;;;;;;;;;;;20.50;71.10;;;;;;5017046;28;1289;-68
2022/10/02 05:09:20;;;;;;;;;;;20.60;71.00;;;;;;5017559;28;1906;-68
2022/10/02 05:11:46;;;;;;;;;;;20.60;71.10;;;;;;5009603;28;872;-67
2022/10/02 05:14:23;;;;;;;;;;;20.60;70.90;;;;;;5018653;28;888;-68
2022/10/02 05:17:02;;;;;;;;;;;20.60;70.90;;;;;;5013871;28;1257;-68
2022/10/02 05:19:50;;;;;;;;;;;20.60;70.80;;;;;;5014911;28;1012;-67
2022/10/02 05:22:26;;;;;;;;;;;20.70;70.80;;;;;;5018679;28;788;-70
2022/10/02 05:25:02;;;;;;;;;;;20.70;70.80;;;;;;5022373;28;832;-71
2022/10/02 05:27:34;;;;;;;;;;;20.70;70.80;;;;;;5022569;28;1950;-73
2022/10/02 05:30:04;;;;;;;;;;;20.70;70.80;;;;;;5022972;28;1026;-73
2022/10/02 05:32:34;;;;;;;;;;;20.70;70.70;;;;;;5022134;28;1089;-73
2022/10/02 05:35:06;;;;;;;;;;;20.70;71.50;;;;;;5019696;28;1089;-72
2022/10/02 05:37:34;;;;;;;;;;;20.70;70.70;;;;;;5020222;28;1296;-71
2022/10/02 05:40:18;;;;;;;;;;;20.70;70.70;;;;;;5020793;28;1340;-69
2022/10/02 05:42:49;;;;;;;;;;;20.70;70.70;;;;;;5021054;28;1069;-70
2022/10/02 05:45:21;;;;;;;;;;;20.70;70.70;;;;;;5020384;28;1018;-70
2022/10/02 05:47:47;;;;;;;;;;;20.70;70.70;;;;;;5010128;28;1966;-70
2022/10/02 05:50:26;;;;;;;;;;;20.60;70.70;;;;;;5026265;28;839;-71
2022/10/02 05:52:53;;;;;;;;;;;20.60;70.70;;;;;;5025477;28;1038;-70
2022/10/02 05:55:23;;;;;;;;;;;20.70;70.80;;;;;;5019144;28;887;-69
2022/10/02 05:57:48;;;;;;;;;;;20.60;70.80;;;;;;5021888;28;1300;-69
2022/10/02 06:00:14;;;;;;;;;;;20.70;70.80;;;;;;5022285;28;1516;-68
2022/10/02 06:02:45;;;;;;;;;;;20.60;70.70;;;;;;5018263;28;1607;-67
2022/10/02 06:05:14;;;;;;;;;;;20.60;70.70;;;;;;5018898;28;837;-70
2022/10/02 06:07:40;;;;;;;;;;;20.60;70.80;;;;;;5018016;28;1952;-69
2022/10/02 06:10:09;;;;;;;;;;;20.60;70.80;;;;;;5021330;28;813;-69
2022/10/02 06:12:38;;;;;;;;;;;20.60;70.80;;;;;;5024946;28;1035;-71
2022/10/02 06:15:06;;;;;;;;;;;20.60;70.90;;;;;;5022205;28;848;-70
2022/10/02 06:17:33;;;;;;;;;;;20.60;70.90;;;;;;5020356;28;1197;-68
2022/10/02 06:19:58;;;;;;;;;;;20.60;70.90;;;;;;5019681;28;948;-70
2022/10/02 06:22:24;;;;;;;;;;;20.60;70.90;;;;;;5020284;28;978;-69
2022/10/02 06:24:52;;;;;;;;;;;20.60;71.00;;;;;;5021224;28;856;-70
2022/10/02 06:27:23;;;;;;;;;;;20.60;71.00;;;;;;5018262;28;1902;-70
2022/10/02 06:29:49;;;;;;;;;;;20.60;71.00;;;;;;5015854;28;1278;-69
2022/10/02 06:32:21;;;;;;;;;;;20.60;71.10;;;;;;5019644;28;1467;-70
2022/10/02 06:34:47;;;;;;;;;;;20.60;71.00;;;;;;5019945;28;2141;-68
2022/10/02 06:37:17;;;;;;;;;;;20.60;71.10;;;;;;5019184;28;1300;-70
2022/10/02 06:40:02;;;;;;;;;;;20.60;71.10;;;;;;5022999;28;1370;-71
2022/10/02 06:43:06;;;;;;;;;;;20.60;71.20;;;;;;5021411;28;869;-71
2022/10/02 06:45:32;;;;;;;;;;;20.60;71.10;;;;;;4974132;28;1263;-73
2022/10/02 06:48:04;;;;;;;;;;;20.60;71.10;;;;;;4979537;28;1911;-71
2022/10/02 06:50:32;;;;;;;;;;;20.60;71.10;;;;;;4991707;28;1094;-70
2022/10/02 06:53:17;;;;;;;;;;;20.60;71.10;;;;;;5018207;28;885;-70
2022/10/02 06:55:59;;;;;;;;;;;20.60;71.10;;;;;;5020595;28;1972;-69
2022/10/02 06:58:38;;;;;;;;;;;20.60;71.10;;;;;;5025118;28;2018;-69
2022/10/02 07:01:08;;;;;;;;;;;20.60;71.10;;;;;;5027184;28;1321;-69
2022/10/02 07:03:40;;;;;;;;;;;20.60;71.10;;;;;;5019506;28;1918;-70
2022/10/02 07:06:05;;;;;;;;;;;20.60;71.10;;;;;;5021224;28;1473;-69
2022/10/02 07:08:36;;;;;;;;;;;20.60;71.10;;;;;;5023604;28;1902;-70
2022/10/02 07:11:14;;;;;;;;;;;20.60;71.10;;;;;;5020340;28;852;-71
2022/10/02 07:13:52;;;;;;;;;;;20.60;71.00;;;;;;5019666;28;836;-70
2022/10/02 07:16:30;;;;;;;;;;;20.60;71.00;;;;;;5021877;28;1277;-70
2022/10/02 07:19:05;;;;;;;;;;;20.60;70.90;;;;;;5020005;28;1105;-70
2022/10/02 07:21:49;;;;;;;;;;;20.60;70.90;;;;;;5019024;28;983;-70
2022/10/02 07:24:35;;;;;;;;;;;20.70;70.80;;;;;;5020081;28;821;-71
2022/10/02 07:27:10;;;;;;;;;;;20.70;70.80;;;;;;5017751;28;1329;-70
2022/10/02 07:29:35;;;;;;;;;;;20.70;70.80;;;;;;5023530;28;2015;-71
2022/10/02 07:32:10;;;;;;;;;;;20.70;70.70;;;;;;5018039;28;923;-71
2022/10/02 07:35:02;;;;;;;;;;;20.70;70.70;;;;;;5015959;28;825;-70
2022/10/02 07:37:34;;;;;;;;;;;20.70;70.60;;;;;;5016890;28;1271;-70
2022/10/02 07:40:18;;;;;;;;;;;20.70;70.60;;;;;;5017560;28;828;-70
2022/10/02 07:43:03;;;;;;;;;;;20.70;70.50;;;;;;5021130;28;876;-70
2022/10/02 07:45:36;;;;;;;;;;;20.80;70.60;;;;;;5020338;28;1429;-70
2022/10/02 07:48:01;;;;;;;;;;;20.70;70.50;;;;;;5020870;28;1971;-71
2022/10/02 07:50:34;;;;;;;;;;;20.80;70.60;;;;;;5020946;28;852;-71
2022/10/02 07:53:18;;;;;;;;;;;20.80;70.50;;;;;;5021007;28;844;-71
2022/10/02 07:55:44;;;;;;;;;;;20.70;70.40;;;;;;5017528;28;1352;-71
2022/10/02 07:58:10;;;;;;;;;;;20.80;70.60;;;;;;5020806;28;948;-71
2022/10/02 08:00:45;;;;;;;;;;;20.80;70.60;;;;;;5019598;28;1220;-71
2022/10/02 08:03:11;;;;;;;;;;;20.80;70.60;;;;;;5003261;28;1668;-71
2022/10/02 08:05:39;;;;;;;;;;;20.80;70.60;;;;;;5021209;28;1261;-71
2022/10/02 08:08:22;;;;;;;;;;;20.70;70.50;;;;;;5020857;28;1976;-71
2022/10/02 08:10:48;;;;;;;;;;;20.70;70.50;;;;;;5018727;28;1094;-71
2022/10/02 08:13:19;;;;;;;;;;;20.80;70.60;;;;;;5010701;28;4001;-70
2022/10/02 08:15:46;;;;;;;;;;;20.70;70.50;;;;;;5003663;28;4368;-71
2022/10/02 08:18:19;;;;;;;;;;;20.70;70.50;;;;;;5011450;28;3925;-72
2022/10/02 08:20:45;;;;;;;;;;;20.70;70.50;;;;;;5016912;28;4959;-72
2022/10/02 08:23:10;;;;;;;;;;;20.80;70.70;;;;;;5020418;28;4316;-69
2022/10/02 08:25:43;;;;;;;;;;;20.70;70.60;;;;;;5015664;28;4304;-71
2022/10/02 08:28:18;;;;;;;;;;;20.70;70.70;;;;;;5018719;28;1969;-71
2022/10/02 08:30:46;;;;;;;;;;;20.70;70.70;;;;;;5023972;28;1429;-69
2022/10/02 08:33:16;;;;;;;;;;;20.70;70.70;;;;;;5021056;28;1544;-72
2022/10/02 08:35:55;;;;;;;;;;;20.70;70.70;;;;;;5021793;28;1283;-71
2022/10/02 08:38:31;;;;;;;;;;;20.70;70.70;;;;;;5021986;28;1260;-70
2022/10/02 08:41:11;;;;;;;;;;;20.70;70.70;;;;;;5021356;28;1331;-69
2022/10/02 08:43:55;;;;;;;;;;;20.70;70.70;;;;;;5020187;28;1399;-69
2022/10/02 08:46:39;;;;;;;;;;;20.70;70.80;;;;;;5020274;28;1334;-68
2022/10/02 08:49:12;;;;;;;;;;;20.70;70.80;;;;;;5021388;28;1894;-69
2022/10/02 08:51:56;;;;;;;;;;;20.70;70.80;;;;;;5019125;28;1208;-69
2022/10/02 08:54:43;;;;;;;;;;;20.70;70.90;;;;;;5022731;28;1637;-70
2022/10/02 08:57:19;;;;;;;;;;;20.70;70.90;;;;;;5021419;28;1442;-70
2022/10/02 09:00:05;;;;;;;;;;;20.70;70.90;;;;;;5021369;28;1359;-70
2022/10/02 09:02:40;;;;;;;;;;;20.70;70.90;;;;;;5026962;28;1662;-70
2022/10/02 09:05:27;;;;;;;;;;;20.60;70.90;;;;;;5021579;28;1266;-70
2022/10/02 09:07:56;;;;;;;;;;;20.70;70.90;;;;;;5024417;28;1902;-69
2022/10/02 09:10:44;;;;;;;;;;;20.60;70.90;;;;;;5025157;28;1342;-69
2022/10/02 09:13:21;;;;;;;;;;;20.70;71.00;;;;;;5025552;28;1322;-70
2022/10/02 09:16:21;;;;;;;;;;;20.70;71.00;;;;;;5025092;28;1394;-70
2022/10/02 09:18:59;;;;;;;;;;;20.60;71.00;;;;;;4990178;28;1540;-69
2022/10/02 09:21:33;;;;;;;;;;;20.60;71.00;;;;;;5033281;28;1408;-69
2022/10/02 09:24:17;;;;;;;;;;;20.60;71.00;;;;;;5022644;28;1588;-70
2022/10/02 09:26:52;;;;;;;;;;;20.60;71.00;;;;;;5022680;28;1724;-70
2022/10/02 09:29:33;;;;;;;;;;;20.60;71.00;;;;;;5023281;28;1890;-71
2022/10/02 09:32:05;;;;;;;;;;;20.60;71.00;;;;;;5028473;28;1358;-70
2022/10/02 09:35:09;;;;;;;;;;;20.60;71.00;;;;;;5023721;28;1391;-71
2022/10/02 09:37:44;;;;;;;;;;;20.60;71.10;;;;;;4999581;28;1527;-68
2022/10/02 09:40:12;;;;;;;;;;;20.60;71.10;;;;;;5005269;28;2200;-68
2022/10/02 09:42:56;;;;;;;;;;;20.60;71.10;;;;;;5007690;28;1756;-69
2022/10/02 09:45:31;;;;;;;;;;;20.60;71.10;;;;;;5019288;28;1534;-69
2022/10/02 09:48:03;;;;;;;;;;;20.60;71.10;;;;;;5023646;28;1964;-68
2022/10/02 09:50:38;;;;;;;;;;;20.60;71.20;;;;;;5022723;28;1304;-69
2022/10/02 09:53:07;;;;;;;;;;;20.60;71.20;;;;;;5021696;28;1228;-69
2022/10/02 09:55:48;;;;;;;;;;;20.60;71.30;;;;;;5022068;28;1288;-69
2022/10/02 09:58:28;;;;;;;;;;;20.60;71.30;;;;;;5021458;28;874;-69
2022/10/02 10:01:12;;;;;;;;;;;20.60;71.30;;;;;;5020451;28;1259;-68
2022/10/02 10:03:38;;;;;;;;;;;20.60;71.30;;;;;;5016525;28;940;-69
2022/10/02 10:06:04;;;;;;;;;;;20.60;71.40;;;;;;5020464;28;1367;-69
2022/10/02 10:08:48;;;;;;;;;;;20.50;71.30;;;;;;5016808;28;1918;-68
2022/10/02 10:11:19;;;;;;;;;;;20.60;71.30;;;;;;5021068;28;994;-69
2022/10/02 10:13:50;;;;;;;;;;;20.50;71.30;;;;;;5020274;28;947;-68
2022/10/02 10:16:28;;;;;;;;;;;20.60;71.40;;;;;;5018179;28;1256;-69
2022/10/02 10:19:30;;;;;;;;;;;20.60;71.40;;;;;;5019602;28;848;-69
2022/10/02 10:22:14;;;;;;;;;;;20.60;71.40;;;;;;4990851;28;1411;-71
2022/10/02 10:24:51;;;;;;;;;;;20.60;71.40;;;;;;5018676;28;1085;-70
2022/10/02 10:27:37;;;;;;;;;;;20.60;71.40;;;;;;5020598;28;1134;-70
2022/10/02 10:30:06;;;;;;;;;;;20.60;71.50;;;;;;5021059;28;914;-69
2022/10/02 10:32:32;;;;;;;;;;;20.50;71.40;;;;;;5018149;28;1125;-68
2022/10/02 10:35:16;;;;;;;;;;;20.60;71.50;;;;;;5022586;28;834;-69
2022/10/02 10:40:56;;;;;;;;;;;20.50;71.50;;;;;;5022758;28;1392;-68
2022/10/02 10:43:30;;;;;;;;;;;20.50;71.50;;;;;;5022151;28;1446;-69
2022/10/02 10:46:04;;;;;;;;;;;20.50;71.60;;;;;;5022868;28;1414;-68
2022/10/02 10:48:49;;;;;;;;;;;20.50;71.50;;;;;;5030280;28;1965;-70
2022/10/02 10:51:17;;;;;;;;;;;20.50;71.50;;;;;;5021720;28;1516;-69
2022/10/02 10:54:02;;;;;;;;;;;20.50;71.60;;;;;;5023215;28;1340;-69
2022/10/02 10:56:27;;;;;;;;;;;20.50;71.60;;;;;;5028336;28;1393;-68
2022/10/02 10:59:11;;;;;;;;;;;20.50;71.60;;;;;;5022026;28;1479;-69
2022/10/02 11:01:48;;;;;;;;;;;20.50;71.60;;;;;;5020320;28;876;-68
2022/10/02 11:04:19;;;;;;;;;;;20.50;71.60;;;;;;5018671;28;1468;-70
2022/10/02 11:07:06;;;;;;;;;;;20.50;71.60;;;;;;5019678;28;1480;-69
2022/10/02 11:09:50;;;;;;;;;;;20.50;71.70;;;;;;5023606;28;1906;-68
2022/10/02 11:12:28;;;;;;;;;;;20.50;71.70;;;;;;5025255;28;1216;-68
2022/10/02 11:14:56;;;;;;;;;;;20.50;71.70;;;;;;5024908;28;1751;-69
2022/10/02 11:17:47;;;;;;;;;;;20.50;71.70;;;;;;5019540;28;1276;-70
2022/10/02 11:20:31;;;;;;;;;;;20.50;71.70;;;;;;4994628;28;1355;-70
2022/10/02 11:23:11;;;;;;;;;;;20.50;71.70;;;;;;5029535;28;1252;-69
2022/10/02 11:25:48;;;;;;;;;;;20.50;71.70;;;;;;5015611;28;1288;-70
2022/10/02 11:28:32;;;;;;;;;;;20.50;71.70;;;;;;5021252;28;1965;-69
2022/10/02 11:31:07;;;;;;;;;;;20.50;71.70;;;;;;5020120;28;1794;-69
2022/10/02 11:33:39;;;;;;;;;;;20.50;71.70;;;;;;5022555;28;1522;-70
2022/10/02 11:36:04;;;;;;;;;;;20.50;71.70;;;;;;5023513;28;1328;-70
2022/10/02 11:38:34;;;;;;;;;;;20.50;71.80;;;;;;5022577;28;1986;-71
2022/10/02 11:41:19;;;;;;;;;;;20.50;71.80;;;;;;5007442;28;1196;-71
2022/10/02 11:44:04;;;;;;;;;;;20.50;71.80;;;;;;5018350;28;1340;-71
2022/10/02 11:46:51;;;;;;;;;;;20.50;71.80;;;;;;5018360;28;1442;-71
2022/10/02 11:49:33;;;;;;;;;;;20.50;71.80;;;;;;5016320;28;1965;-70
2022/10/02 11:52:17;;;;;;;;;;;20.50;71.80;;;;;;5023273;28;1871;-70
2022/10/02 11:54:53;;;;;;;;;;;20.50;71.80;;;;;;5021157;28;1305;-71
2022/10/02 11:57:46;;;;;;;;;;;20.50;71.80;;;;;;5022327;28;1386;-70
2022/10/02 12:00:15;;;;;;;;;;;20.50;71.90;;;;;;5022100;28;1273;-69
2022/10/02 12:02:58;;;;;;;;;;;20.50;72.00;;;;;;5020943;28;1349;-68
2022/10/02 12:05:43;;;;;;;;;;;20.50;71.90;;;;;;5019757;28;1346;-70
2022/10/02 12:08:20;;;;;;;;;;;20.50;71.90;;;;;;5018456;28;1898;-69
2022/10/02 12:10:54;;;;;;;;;;;20.50;71.90;;;;;;5021021;28;1392;-69
2022/10/02 12:13:40;;;;;;;;;;;20.50;71.80;;;;;;5024151;28;1392;-70
2022/10/02 12:16:06;;;;;;;;;;;20.50;71.80;;;;;;5024840;28;1462;-69
2022/10/02 12:18:36;;;;;;;;;;;20.40;71.80;;;;;;5021835;28;1316;-72
2022/10/02 12:27:03;;;;;;;;;;;20.50;71.90;;;;;;5026181;28;1375;-72
2022/10/02 12:29:47;;;;;;;;;;;20.40;71.80;;;;;;5021520;28;1898;-72
2022/10/02 12:32:15;;;;;;;;;;;20.50;71.90;;;;;;5024980;28;1344;-72
2022/10/02 12:34:47;;;;;;;;;;;20.50;72.00;;;;;;5019215;28;2212;-71
2022/10/02 12:37:12;;;;;;;;;;;20.50;71.90;;;;;;5025965;28;1689;-72
2022/10/02 12:39:42;;;;;;;;;;;20.50;72.00;;;;;;5024234;28;1396;-72
2022/10/02 12:42:12;;;;;;;;;;;20.50;72.00;;;;;;5021431;28;1375;-69
2022/10/02 12:44:47;;;;;;;;;;;20.50;71.90;;;;;;5019610;28;1479;-70
2022/10/02 12:47:27;;;;;;;;;;;20.40;71.90;;;;;;5018132;28;1368;-71
2022/10/02 12:50:08;;;;;;;;;;;20.50;72.00;;;;;;5017846;28;828;-71
2022/10/02 12:52:42;;;;;;;;;;;20.50;72.00;;;;;;5019110;28;1093;-71
2022/10/02 12:55:16;;;;;;;;;;;20.50;72.00;;;;;;5018527;28;1042;-71
2022/10/02 12:57:51;;;;;;;;;;;20.50;72.00;;;;;;5013643;28;1299;-71
2022/10/02 13:00:17;;;;;;;;;;;20.50;72.00;;;;;;5017718;28;1295;-71
2022/10/02 13:02:58;;;;;;;;;;;20.50;72.00;;;;;;5020011;28;1347;-71
2022/10/02 13:05:42;;;;;;;;;;;20.50;72.00;;;;;;5019698;28;897;-71
2022/10/02 13:08:10;;;;;;;;;;;20.50;72.00;;;;;;5021015;28;1911;-71
2022/10/02 13:10:56;;;;;;;;;;;20.50;72.10;;;;;;5017216;28;810;-69
2022/10/02 13:13:23;;;;;;;;;;;20.40;72.00;;;;;;5018218;28;1159;-69
2022/10/02 13:15:58;;;;;;;;;;;20.50;72.00;;;;;;5016133;28;1320;-70
2022/10/02 13:18:29;;;;;;;;;;;20.50;72.10;;;;;;5019038;28;1767;-70
2022/10/02 13:21:03;;;;;;;;;;;20.50;72.10;;;;;;5023752;28;1316;-71
2022/10/02 13:23:48;;;;;;;;;;;20.50;72.10;;;;;;5017838;28;1039;-71
2022/10/02 13:26:14;;;;;;;;;;;20.50;72.10;;;;;;5028706;28;1460;-71
2022/10/02 13:28:43;;;;;;;;;;;20.50;72.10;;;;;;5020020;28;1906;-71
2022/10/02 13:31:28;;;;;;;;;;;20.50;72.10;;;;;;5018516;28;1479;-71
2022/10/02 13:33:54;;;;;;;;;;;20.50;72.20;;;;;;5014430;28;1081;-71
2022/10/02 13:36:40;;;;;;;;;;;20.50;72.10;;;;;;5016259;28;1280;-71
2022/10/02 13:39:15;;;;;;;;;;;20.50;72.10;;;;;;5015544;28;1277;-70
2022/10/02 13:41:47;;;;;;;;;;;20.50;72.10;;;;;;5017712;28;824;-70
2022/10/02 13:44:23;;;;;;;;;;;20.50;72.10;;;;;;5019497;28;840;-70
2022/10/02 13:46:58;;;;;;;;;;;20.50;72.20;;;;;;5021506;28;1300;-70
2022/10/02 13:49:24;;;;;;;;;;;20.50;72.60;;;;;;5025248;28;1969;-71
2022/10/02 13:51:54;;;;;;;;;;;20.50;72.40;;;;;;5024488;28;816;-71
2022/10/02 13:54:19;;;;;;;;;;;20.50;72.30;;;;;;5018942;28;2130;-71
2022/10/02 13:56:57;;;;;;;;;;;20.50;72.30;;;;;;5024007;28;1288;-71
2022/10/02 13:59:28;;;;;;;;;;;20.40;72.20;;;;;;5023873;28;1148;-70
2022/10/02 14:01:58;;;;;;;;;;;20.40;72.10;;;;;;5024584;28;1521;-71
2022/10/02 14:04:28;;;;;;;;;;;20.50;72.20;;;;;;5021166;28;1089;-71
2022/10/02 14:06:56;;;;;;;;;;;20.50;72.20;;;;;;5017080;28;1285;-70
2022/10/02 14:09:24;;;;;;;;;;;20.50;72.20;;;;;;5020537;28;1977;-72
2022/10/02 14:12:10;;;;;;;;;;;20.50;72.20;;;;;;5020845;28;1077;-72
2022/10/02 14:14:45;;;;;;;;;;;20.50;72.20;;;;;;4997855;28;1088;-70
2022/10/02 14:17:11;;;;;;;;;;;20.40;72.10;;;;;;5020174;28;1252;-71
2022/10/02 14:19:40;;;;;;;;;;;20.50;72.30;;;;;;5019902;28;875;-70
2022/10/02 14:22:05;;;;;;;;;;;20.50;72.30;;;;;;5022429;28;990;-70
2022/10/02 14:27:40;;;;;;;;;;;20.50;72.30;;;;;;5023024;28;1375;-71
2022/10/02 14:30:07;;;;;;;;;;;20.50;72.20;;;;;;5023659;28;1077;-70
2022/10/02 14:32:33;;;;;;;;;;;20.50;72.30;;;;;;5028126;28;1397;-70
2022/10/02 14:35:19;;;;;;;;;;;20.50;72.30;;;;;;5018624;28;899;-71
2022/10/02 14:37:51;;;;;;;;;;;20.50;72.30;;;;;;5022324;28;1387;-72
2022/10/02 14:40:17;;;;;;;;;;;20.50;72.30;;;;;;5019352;28;1311;-70
2022/10/02 14:42:52;;;;;;;;;;;20.50;72.30;;;;;;5019714;28;1416;-70
2022/10/02 14:45:24;;;;;;;;;;;20.50;72.30;;;;;;5020871;28;947;-69
2022/10/02 14:47:58;;;;;;;;;;;20.50;72.30;;;;;;5018422;28;1962;-70
2022/10/02 14:50:39;;;;;;;;;;;20.50;72.30;;;;;;5019811;28;983;-70
2022/10/02 14:53:25;;;;;;;;;;;20.50;72.30;;;;;;5019993;28;847;-69
2022/10/02 14:55:59;;;;;;;;;;;20.50;72.30;;;;;;5008987;28;1259;-70
2022/10/02 14:58:27;;;;;;;;;;;20.50;72.30;;;;;;5022072;28;1134;-70
2022/10/02 15:01:12;;;;;;;;;;;20.50;72.30;;;;;;5020662;28;931;-71
2022/10/02 15:03:40;;;;;;;;;;;20.50;72.30;;;;;;5004510;28;1293;-71
2022/10/02 15:06:16;;;;;;;;;;;20.50;72.30;;;;;;5021519;28;1296;-72
2022/10/02 15:08:42;;;;;;;;;;;20.50;72.30;;;;;;5020323;28;1973;-71
2022/10/02 15:11:24;;;;;;;;;;;20.50;72.30;;;;;;5018623;28;1073;-71
2022/10/02 15:13:51;;;;;;;;;;;20.50;72.30;;;;;;5021026;28;865;-70
2022/10/02 15:19:07;;;;;;;;;;;20.50;72.30;;;;;;5017821;28;843;-71
2022/10/02 15:21:35;;;;;;;;;;;20.50;72.30;;;;;;5020478;28;904;-71
2022/10/02 15:24:12;;;;;;;;;;;20.50;72.40;;;;;;5019789;28;1347;-71